sim
Sign-in with your pilot id or email,
or register
Callsign
Passwort

Schedule Details

Flight Number: RYR7777 (2)
Departure: Chania International Airport (LGSA) at 13:20
Arrival: Thessaloniki International Airport (LGTS) at 14:40
Route: Ryanair Passenger Schedule. Enter filed route here before submitting Pirep.

Weather Information
Getting current METAR information for LGSA 211550Z 33006KT 9999 FEW025 14/10 Q1021
Getting current METAR information for LGTS 211550Z 35005KT CAVOK 14/00 Q1021 NOSIG

Schedule Frequency

Route Map